Time;durP1;ratioP1;P1;durP2;ratioP2;P2;SDS_P1;SDS_P2;PMS_P1;PMS_P2;Temp;Humidity;BMP_temperature;BMP_pressure;BME280_temperature;BME280_humidity;BME280_pressure;Samples;Min_cycle;Max_cycle;Signal;HPM_P1;HPM_P2
2023/03/16 00:01:58;;;;;;;;;;;;;;;16.87;45.90;99786.53;4995136;28;1131;-35
2023/03/16 00:04:24;;;;;;;;;;;;;;;16.59;46.04;99780.94;4996042;28;1096;-35
2023/03/16 00:06:49;;;;;;;;;;;;;;;15.94;47.84;99776.91;4996381;28;1037;-37
2023/03/16 00:09:16;;;;;;;;;;;;;;;15.65;48.42;99777.75;4996547;28;1906;-35
2023/03/16 00:11:41;;;;;;;;;;;;;;;15.47;49.04;99779.31;4996226;28;1090;-39
2023/03/16 00:14:07;;;;;;;;;;;;;;;16.31;46.92;99786.28;4996382;28;1038;-36
2023/03/16 00:16:34;;;;;;;;;;;;;;;17.14;44.89;99783.13;4996325;28;1208;-38
2023/03/16 00:19:02;;;;;;;;;;;;;;;16.14;47.29;99789.53;4996082;28;1227;-40
2023/03/16 00:21:30;;;;;;;;;;;;;;;15.77;48.13;99782.00;4996168;28;1172;-38
2023/03/16 00:23:56;;;;;;;;;;;;;;;15.56;48.72;99790.50;4995061;28;1048;-37
2023/03/16 00:26:21;;;;;;;;;;;;;;;15.44;49.12;99788.13;4996168;28;1083;-35
2023/03/16 00:28:47;;;;;;;;;;;;;;;16.57;46.52;99788.66;4995926;28;1910;-37
2023/03/16 00:31:13;;;;;;;;;;;;;;;17.21;44.55;99786.28;4996335;28;1045;-39
2023/03/16 00:33:38;;;;;;;;;;;;;;;16.21;47.13;99786.44;4978504;28;1564;-35
2023/03/16 00:36:06;;;;;;;;;;;;;;;15.82;48.26;99790.22;4996253;28;1135;-36
2023/03/16 00:38:36;;;;;;;;;;;;;;;15.65;48.54;99794.19;4996210;28;1104;-35
2023/03/16 00:41:02;;;;;;;;;;;;;;;15.43;48.94;99797.47;4995835;28;1232;-38
2023/03/16 00:43:29;;;;;;;;;;;;;;;16.70;46.01;99790.66;4994501;28;1202;-36
2023/03/16 00:45:58;;;;;;;;;;;;;;;17.15;44.79;99792.16;4996167;28;1112;-41
2023/03/16 00:48:26;;;;;;;;;;;;;;;16.11;47.14;99792.88;4997606;28;1177;-36
2023/03/16 00:50:53;;;;;;;;;;;;;;;15.78;48.27;99800.94;4998517;28;1909;-39
2023/03/16 00:53:21;;;;;;;;;;;;;;;15.58;48.57;99796.47;4999430;28;1106;-40
2023/03/16 00:55:46;;;;;;;;;;;;;;;15.40;48.99;99793.38;4997901;28;1146;-37
2023/03/16 00:58:13;;;;;;;;;;;;;;;16.40;46.84;99792.75;5000214;28;1113;-35
2023/03/16 01:00:39;;;;;;;;;;;;;;;17.20;44.86;99800.31;4999518;28;1275;-35
2023/03/16 01:03:06;;;;;;;;;;;;;;;16.24;46.93;99805.03;4998008;28;1133;-35
2023/03/16 01:05:32;;;;;;;;;;;;;;;15.87;48.03;99798.38;4998756;28;1113;-36
2023/03/16 01:07:58;;;;;;;;;;;;;;;15.63;48.64;99799.16;4999314;28;893;-35
2023/03/16 01:10:24;;;;;;;;;;;;;;;15.49;49.17;99790.81;4997720;28;1902;-35
2023/03/16 01:12:54;;;;;;;;;;;;;;;17.05;45.16;99782.16;4998152;28;1632;-36
2023/03/16 01:15:20;;;;;;;;;;;;;;;16.51;46.27;99789.84;4997947;28;1129;-36
2023/03/16 01:17:46;;;;;;;;;;;;;;;15.89;47.83;99797.00;4998698;28;1212;-34
2023/03/16 01:20:13;;;;;;;;;;;;;;;15.68;48.57;99796.38;5014140;28;1461;-35
2023/03/16 01:22:39;;;;;;;;;;;;;;;15.46;49.21;99798.78;4999271;28;1172;-34
2023/03/16 01:25:06;;;;;;;;;;;;;;;16.04;47.90;99801.44;4997038;28;1044;-35
2023/03/16 01:27:31;;;;;;;;;;;;;;;17.42;44.37;99803.22;4997958;28;1742;-36
2023/03/16 01:29:57;;;;;;;;;;;;;;;16.47;46.48;99806.09;4998796;28;1981;-35
2023/03/16 01:32:23;;;;;;;;;;;;;;;15.98;47.78;99807.31;4996875;28;1226;-39
2023/03/16 01:34:48;;;;;;;;;;;;;;;15.70;48.52;99816.06;4997404;28;1085;-37
2023/03/16 01:37:15;;;;;;;;;;;;;;;15.54;48.85;99822.81;4997392;28;1215;-40
2023/03/16 01:39:57;;;;;;;;;;;;;;;16.34;47.05;99817.78;5007540;28;956;-36
2023/03/16 01:42:23;;;;;;;;;;;;;;;17.42;44.24;99808.72;4998517;28;1212;-40
2023/03/16 01:45:00;;;;;;;;;;;;;;;16.37;46.74;99812.53;4996974;28;1267;-39
2023/03/16 01:47:37;;;;;;;;;;;;;;;15.95;47.67;99813.34;5030230;28;1443;-40
2023/03/16 01:50:04;;;;;;;;;;;;;;;15.71;48.50;99834.16;4997512;28;1910;-36
2023/03/16 01:52:32;;;;;;;;;;;;;;;15.53;48.78;99823.94;4981185;28;1660;-39
2023/03/16 01:55:06;;;;;;;;;;;;;;;16.04;47.65;99828.88;4998234;28;1048;-36
2023/03/16 01:57:35;;;;;;;;;;;;;;;17.12;45.05;99828.47;4996814;28;1180;-36
2023/03/16 02:00:18;;;;;;;;;;;;;;;16.14;47.19;99822.44;4980403;28;1196;-39
2023/03/16 02:03:12;;;;;;;;;;;;;;;15.73;48.60;99823.72;5013789;28;1275;-36
2023/03/16 02:06:09;;;;;;;;;;;;;;;15.96;48.08;99829.50;4993381;28;1199;-36
2023/03/16 02:08:35;;;;;;;;;;;;;;;17.07;45.20;99837.63;4996241;28;1222;-35
2023/03/16 02:11:03;;;;;;;;;;;;;;;16.15;47.14;99837.00;4980968;28;1243;-36
2023/03/16 02:13:49;;;;;;;;;;;;;;;15.79;48.15;99846.44;4997789;28;1084;-39
2023/03/16 02:16:18;;;;;;;;;;;;;;;15.62;48.78;99849.59;4996478;28;1542;-39
2023/03/16 02:18:45;;;;;;;;;;;;;;;15.44;48.91;99844.84;4996740;28;1102;-40
2023/03/16 02:21:18;;;;;;;;;;;;;;;16.21;47.62;99849.53;4980547;28;1383;-38
2023/03/16 02:23:44;;;;;;;;;;;;;;;17.53;44.33;99841.50;4996680;28;1354;-36
2023/03/16 02:26:14;;;;;;;;;;;;;;;16.48;46.68;99845.31;4996454;28;1284;-38
2023/03/16 02:28:57;;;;;;;;;;;;;;;15.96;47.71;99854.19;4977208;28;1911;-36
2023/03/16 02:31:22;;;;;;;;;;;;;;;15.68;48.67;99851.19;4979934;28;1186;-37
2023/03/16 02:33:48;;;;;;;;;;;;;;;15.56;48.77;99850.75;4996572;28;1356;-38
2023/03/16 02:36:14;;;;;;;;;;;;;;;15.81;48.53;99854.38;4996584;28;1116;-37
2023/03/16 02:38:40;;;;;;;;;;;;;;;17.06;45.09;99839.53;4995896;28;1232;-38
2023/03/16 02:41:12;;;;;;;;;;;;;;;16.04;47.58;99836.28;4996186;28;1339;-35
2023/03/16 02:43:39;;;;;;;;;;;;;;;15.68;48.46;99837.50;5028911;28;1200;-37
2023/03/16 02:46:22;;;;;;;;;;;;;;;15.49;49.11;99836.59;5014550;28;1179;-37
2023/03/16 02:48:54;;;;;;;;;;;;;;;15.45;49.20;99830.88;4995856;28;1914;-38
2023/03/16 02:51:20;;;;;;;;;;;;;;;17.06;45.22;99827.75;4997361;28;1087;-41
2023/03/16 02:53:45;;;;;;;;;;;;;;;16.39;46.63;99835.00;4996188;28;1120;-35
2023/03/16 02:56:11;;;;;;;;;;;;;;;15.82;48.10;99840.41;4995905;28;1203;-36
2023/03/16 02:58:37;;;;;;;;;;;;;;;15.60;48.64;99834.53;4997060;28;1029;-35
2023/03/16 03:01:07;;;;;;;;;;;;;;;15.40;49.32;99845.44;4995952;28;1301;-37
2023/03/16 03:03:34;;;;;;;;;;;;;;;15.25;49.70;99842.84;4996175;28;1237;-38
2023/03/16 03:06:00;;;;;;;;;;;;;;;16.77;45.93;99851.50;4995803;28;1065;-37
2023/03/16 03:08:28;;;;;;;;;;;;;;;16.38;46.83;99852.59;4995171;28;1150;-34
2023/03/16 03:10:54;;;;;;;;;;;;;;;15.77;48.41;99859.59;4996860;28;1918;-35
2023/03/16 03:13:20;;;;;;;;;;;;;;;15.51;48.84;99861.78;4995837;28;1264;-35
2023/03/16 03:15:45;;;;;;;;;;;;;;;15.36;49.05;99871.78;4995828;28;1215;-38
2023/03/16 03:18:13;;;;;;;;;;;;;;;16.21;47.35;99871.47;4996051;28;1123;-35
2023/03/16 03:20:39;;;;;;;;;;;;;;;17.16;44.73;99877.00;4995568;28;1154;-35
2023/03/16 03:23:04;;;;;;;;;;;;;;;16.16;47.37;99882.47;4996828;28;1052;-36
2023/03/16 03:25:33;;;;;;;;;;;;;;;15.77;48.47;99884.25;4997145;28;1119;-37
2023/03/16 03:27:59;;;;;;;;;;;;;;;15.49;49.16;99888.66;5012416;28;1206;-38
2023/03/16 03:30:26;;;;;;;;;;;;;;;15.66;48.67;99885.47;4995402;28;1981;-37
2023/03/16 03:32:52;;;;;;;;;;;;;;;17.23;44.71;99884.88;4995529;28;1132;-40
2023/03/16 03:35:18;;;;;;;;;;;;;;;16.49;46.64;99888.13;4995581;28;1208;-38
2023/03/16 03:37:44;;;;;;;;;;;;;;;15.89;48.13;99892.94;4996483;28;1084;-37
2023/03/16 03:40:12;;;;;;;;;;;;;;;15.64;48.51;99894.00;4995380;28;1177;-40
2023/03/16 03:42:39;;;;;;;;;;;;;;;15.43;49.28;99903.47;5028198;28;1194;-38
2023/03/16 03:45:05;;;;;;;;;;;;;;;15.29;49.64;99909.63;4995969;28;1088;-36
2023/03/16 03:47:31;;;;;;;;;;;;;;;16.41;47.12;99906.88;4996549;28;1502;-37
2023/03/16 03:49:58;;;;;;;;;;;;;;;16.94;45.58;99907.84;4995029;28;1902;-38
2023/03/16 03:52:23;;;;;;;;;;;;;;;15.98;47.94;99917.78;4996193;28;1001;-35
2023/03/16 03:54:50;;;;;;;;;;;;;;;15.69;48.49;99912.28;4996358;28;1021;-35
2023/03/16 03:57:16;;;;;;;;;;;;;;;15.48;49.00;99923.44;4996308;28;1136;-38
2023/03/16 03:59:42;;;;;;;;;;;;;;;15.97;47.97;99924.38;4996237;28;1048;-37
2023/03/16 04:02:26;;;;;;;;;;;;;;;17.05;45.30;99925.78;4996301;28;1104;-36
2023/03/16 04:04:54;;;;;;;;;;;;;;;16.06;47.62;99925.38;4996735;28;1064;-38
2023/03/16 04:07:19;;;;;;;;;;;;;;;15.70;48.74;99933.94;4995014;28;1116;-38
2023/03/16 04:09:46;;;;;;;;;;;;;;;15.50;49.13;99925.88;5010749;28;1991;-36
2023/03/16 04:12:22;;;;;;;;;;;;;;;15.64;48.99;99940.56;4981747;28;1246;-42
2023/03/16 04:14:47;;;;;;;;;;;;;;;17.16;44.97;99936.66;4996270;28;1223;-43
2023/03/16 04:17:15;;;;;;;;;;;;;;;16.20;47.36;99943.88;4995223;28;1123;-44
2023/03/16 04:19:42;;;;;;;;;;;;;;;15.76;48.37;99933.91;4995204;28;1303;-42
2023/03/16 04:22:12;;;;;;;;;;;;;;;15.52;48.97;99951.09;5028282;28;1216;-43
2023/03/16 04:24:38;;;;;;;;;;;;;;;15.35;49.44;99955.03;4998860;28;1559;-41
2023/03/16 04:27:03;;;;;;;;;;;;;;;16.32;47.28;99952.53;4999002;28;1147;-42
2023/03/16 04:29:29;;;;;;;;;;;;;;;17.23;44.74;99959.06;5015202;28;1918;-39
2023/03/16 04:31:56;;;;;;;;;;;;;;;16.14;47.37;99962.31;4998752;28;1267;-43
2023/03/16 04:34:23;;;;;;;;;;;;;;;15.78;48.48;99959.91;5015065;28;1114;-40
2023/03/16 04:36:52;;;;;;;;;;;;;;;15.53;48.97;99958.22;4998330;28;1261;-43
2023/03/16 04:39:19;;;;;;;;;;;;;;;15.39;49.30;99969.00;4998798;28;1260;-40
2023/03/16 04:41:44;;;;;;;;;;;;;;;15.51;49.10;99972.16;5031344;28;1288;-43
2023/03/16 04:44:16;;;;;;;;;;;;;;;17.14;45.39;99971.81;4997961;28;1122;-41
2023/03/16 04:46:42;;;;;;;;;;;;;;;16.52;46.36;99973.44;5031362;28;1211;-46
2023/03/16 04:49:09;;;;;;;;;;;;;;;15.87;48.30;99979.31;4998399;28;1899;-39
2023/03/16 04:51:36;;;;;;;;;;;;;;;15.60;48.89;99980.63;5014461;28;1292;-47
2023/03/16 04:54:06;;;;;;;;;;;;;;;15.40;49.60;99987.88;4998428;28;1349;-43
2023/03/16 04:56:34;;;;;;;;;;;;;;;15.95;48.19;99986.94;4997857;28;1363;-41
2023/03/16 04:59:03;;;;;;;;;;;;;;;17.26;44.80;99989.53;4997936;28;1969;-40
2023/03/16 05:01:39;;;;;;;;;;;;;;;16.19;47.35;99992.44;5014361;28;1285;-40
2023/03/16 05:04:05;;;;;;;;;;;;;;;15.75;48.67;99998.84;4998309;28;1339;-45
2023/03/16 05:06:34;;;;;;;;;;;;;;;15.49;49.09;99996.31;4998041;28;1121;-41
2023/03/16 05:09:01;;;;;;;;;;;;;;;15.32;49.80;100002.19;4997571;28;1891;-43
2023/03/16 05:11:31;;;;;;;;;;;;;;;16.08;47.81;99999.94;4997935;28;1212;-43
2023/03/16 05:14:00;;;;;;;;;;;;;;;17.32;44.98;100005.91;4997863;28;1170;-46
2023/03/16 05:16:27;;;;;;;;;;;;;;;16.20;47.55;99999.56;4997610;28;1423;-42
2023/03/16 05:18:53;;;;;;;;;;;;;;;15.77;48.31;100004.88;4998094;28;1140;-45
2023/03/16 05:21:19;;;;;;;;;;;;;;;15.52;49.29;100006.69;4998853;28;1077;-46
2023/03/16 05:23:57;;;;;;;;;;;;;;;15.37;49.36;100021.31;4997924;28;1252;-46
2023/03/16 05:26:24;;;;;;;;;;;;;;;16.38;47.04;100017.22;4999422;28;1056;-45
2023/03/16 05:28:50;;;;;;;;;;;;;;;17.01;45.51;100014.59;4997621;28;1902;-42
2023/03/16 05:31:17;;;;;;;;;;;;;;;16.04;47.67;100023.56;4997766;28;1163;-43
2023/03/16 05:33:48;;;;;;;;;;;;;;;15.73;48.50;100023.81;4997082;28;1310;-45
2023/03/16 05:36:17;;;;;;;;;;;;;;;15.45;49.28;100019.91;4997057;28;1078;-42
2023/03/16 05:38:45;;;;;;;;;;;;;;;15.33;49.72;100022.16;4997705;28;1362;-47
2023/03/16 05:41:17;;;;;;;;;;;;;;;16.70;46.47;100021.22;4997237;28;1282;-42
2023/03/16 05:44:05;;;;;;;;;;;;;;;16.32;47.23;100009.34;4997836;28;1579;-44
2023/03/16 05:46:48;;;;;;;;;;;;;;;15.74;48.42;100021.91;5000854;28;1148;-47
2023/03/16 05:49:14;;;;;;;;;;;;;;;15.51;49.24;100026.16;4997298;28;1910;-42
2023/03/16 05:51:40;;;;;;;;;;;;;;;15.30;49.46;100023.53;4998362;28;1136;-44
2023/03/16 05:54:06;;;;;;;;;;;;;;;15.48;49.33;100026.75;4997322;28;1162;-49
2023/03/16 05:56:40;;;;;;;;;;;;;;;17.12;45.22;100027.06;4997413;28;1405;-43
2023/03/16 05:59:06;;;;;;;;;;;;;;;16.56;46.49;100028.53;4996529;28;1238;-44
2023/03/16 06:01:35;;;;;;;;;;;;;;;15.87;48.07;100031.41;4997355;28;1137;-44
2023/03/16 06:04:04;;;;;;;;;;;;;;;15.63;48.84;100031.31;4998456;28;1123;-45
2023/03/16 06:06:33;;;;;;;;;;;;;;;15.37;49.29;100036.94;4997010;28;1153;-46
2023/03/16 06:09:05;;;;;;;;;;;;;;;15.84;48.60;100034.72;4997011;28;1906;-45
2023/03/16 06:11:31;;;;;;;;;;;;;;;17.23;45.18;100036.00;5013313;28;1213;-46
2023/03/16 06:13:58;;;;;;;;;;;;;;;16.53;46.22;100035.44;4996576;28;1139;-42
2023/03/16 06:16:24;;;;;;;;;;;;;;;15.84;47.86;100034.72;5029688;28;1592;-44
2023/03/16 06:18:50;;;;;;;;;;;;;;;15.50;47.73;100046.44;4998269;28;1152;-43
2023/03/16 06:21:16;;;;;;;;;;;;;;;16.41;47.08;100054.22;4996622;28;1234;-45
2023/03/16 06:23:42;;;;;;;;;;;;;;;16.33;46.90;100050.19;4996820;28;1340;-43
2023/03/16 06:26:08;;;;;;;;;;;;;;;15.62;47.80;100049.66;4996299;28;1173;-43
2023/03/16 06:28:36;;;;;;;;;;;;;;;17.31;45.05;100048.25;4996468;28;1104;-44
2023/03/16 06:31:02;;;;;;;;;;;;;;;16.04;47.37;100056.47;4996568;28;1922;-42
2023/03/16 06:33:31;;;;;;;;;;;;;;;17.48;44.66;100058.75;4996641;28;1356;-42
2023/03/16 06:35:57;;;;;;;;;;;;;;;17.08;45.27;100062.56;4997163;28;1032;-46
2023/03/16 06:38:30;;;;;;;;;;;;;;;16.23;46.98;100064.03;4996394;28;1227;-43
2023/03/16 06:41:00;;;;;;;;;;;;;;;16.19;47.46;100069.25;5012103;28;1158;-44
2023/03/16 06:43:26;;;;;;;;;;;;;;;16.75;46.08;100069.78;4995959;28;1390;-42
2023/03/16 06:45:52;;;;;;;;;;;;;;;16.08;47.13;100074.00;4995070;28;1277;-44
2023/03/16 06:48:19;;;;;;;;;;;;;;;17.16;45.82;100071.25;4996630;28;1069;-42
2023/03/16 06:50:45;;;;;;;;;;;;;;;16.49;46.81;100088.47;4995927;28;1914;-44
2023/03/16 06:53:12;;;;;;;;;;;;;;;17.16;45.80;100085.00;5028860;28;1279;-40
2023/03/16 06:55:38;;;;;;;;;;;;;;;17.83;43.58;100081.31;4995795;28;1186;-40
2023/03/16 06:58:04;;;;;;;;;;;;;;;16.51;46.39;100095.28;4995755;28;1247;-44
2023/03/16 07:00:30;;;;;;;;;;;;;;;16.18;46.47;100091.47;4996056;28;1088;-45
2023/03/16 07:02:56;;;;;;;;;;;;;;;17.51;44.74;100102.13;4996269;28;1300;-40
2023/03/16 07:05:21;;;;;;;;;;;;;;;16.51;46.48;100099.94;4995649;28;1309;-43
2023/03/16 07:07:48;;;;;;;;;;;;;;;17.57;44.77;100100.91;4995753;28;1260;-46
2023/03/16 07:10:14;;;;;;;;;;;;;;;17.11;45.63;100110.59;4995629;28;1983;-45
2023/03/16 07:12:41;;;;;;;;;;;;;;;16.39;46.59;100117.63;5028587;28;1197;-42
2023/03/16 07:15:07;;;;;;;;;;;;;;;16.49;46.88;100122.19;4997242;28;1184;-42
2023/03/16 07:17:33;;;;;;;;;;;;;;;16.92;46.09;100124.28;5028639;28;1279;-44
2023/03/16 07:20:04;;;;;;;;;;;;;;;16.32;46.67;100119.88;4995267;28;1253;-39
2023/03/16 07:22:31;;;;;;;;;;;;;;;16.22;46.29;100118.03;5028524;28;1319;-44
2023/03/16 07:24:57;;;;;;;;;;;;;;;17.16;45.69;100112.47;4995763;28;1268;-42
2023/03/16 07:27:25;;;;;;;;;;;;;;;16.22;46.88;100123.53;4995340;28;1292;-44
2023/03/16 07:29:51;;;;;;;;;;;;;;;17.46;45.40;100116.75;4990849;28;1914;-44
2023/03/16 07:32:17;;;;;;;;;;;;;;;16.82;46.06;100125.19;5029723;28;1331;-42
2023/03/16 07:34:44;;;;;;;;;;;;;;;16.24;46.72;100128.72;5011507;28;1131;-42
2023/03/16 07:37:10;;;;;;;;;;;;;;;17.46;45.12;100133.25;4995645;28;1232;-43
2023/03/16 07:39:36;;;;;;;;;;;;;;;16.47;46.68;100137.34;4995764;28;1306;-42
2023/03/16 07:42:13;;;;;;;;;;;;;;;17.65;44.90;100141.50;4995141;28;1115;-43
2023/03/16 07:44:57;;;;;;;;;;;;;;;17.16;45.77;100140.75;4995485;28;1243;-45
2023/03/16 07:47:24;;;;;;;;;;;;;;;16.56;46.57;100144.66;4996556;28;1144;-44
2023/03/16 07:49:52;;;;;;;;;;;;;;;16.31;46.21;100151.16;4995462;28;1906;-45
2023/03/16 07:52:17;;;;;;;;;;;;;;;17.95;44.24;100148.53;4995148;28;1153;-40
2023/03/16 07:54:43;;;;;;;;;;;;;;;16.73;46.43;100157.94;4995224;28;1324;-46
2023/03/16 07:57:10;;;;;;;;;;;;;;;16.30;46.67;100163.25;4996179;28;1209;-45
2023/03/16 07:59:41;;;;;;;;;;;;;;;17.27;45.71;100158.75;5023512;28;1196;-46
2023/03/16 08:02:13;;;;;;;;;;;;;;;16.44;46.78;100166.16;4995170;28;1383;-42
2023/03/16 08:04:43;;;;;;;;;;;;;;;17.57;45.13;100172.41;4999149;28;1210;-44
2023/03/16 08:07:09;;;;;;;;;;;;;;;16.84;46.53;100177.06;5015595;28;1320;-44
2023/03/16 08:10:10;;;;;;;;;;;;;;;16.38;46.82;100170.88;5003352;28;1914;-43
2023/03/16 08:12:55;;;;;;;;;;;;;;;16.88;46.38;100180.84;4999314;28;1400;-41
2023/03/16 08:15:20;;;;;;;;;;;;;;;16.72;47.22;100185.69;5000262;28;1148;-44
2023/03/16 08:17:47;;;;;;;;;;;;;;;18.42;43.06;100181.63;4999118;28;1151;-47
2023/03/16 08:20:18;;;;;;;;;;;;;;;16.91;46.11;100188.53;4998886;28;1260;-48
2023/03/16 08:22:45;;;;;;;;;;;;;;;16.55;46.30;100186.09;5031448;28;1361;-50
2023/03/16 08:25:12;;;;;;;;;;;;;;;16.28;46.27;100187.41;4998908;28;1275;-44
2023/03/16 08:27:45;;;;;;;;;;;;;;;16.87;46.38;100181.97;4998970;28;1391;-44
2023/03/16 08:30:11;;;;;;;;;;;;;;;16.39;46.83;100180.72;5025382;28;1988;-44
2023/03/16 08:32:40;;;;;;;;;;;;;;;18.34;43.70;100181.50;4992314;28;1300;-45
2023/03/16 08:35:07;;;;;;;;;;;;;;;16.92;46.20;100193.75;5015134;28;1227;-46
2023/03/16 08:37:33;;;;;;;;;;;;;;;16.56;46.49;100204.19;4998826;28;1386;-46
2023/03/16 08:39:59;;;;;;;;;;;;;;;16.28;46.41;100190.16;4998833;28;1235;-47
2023/03/16 08:42:27;;;;;;;;;;;;;;;17.14;45.88;100202.59;4995606;28;1341;-43
2023/03/16 08:44:59;;;;;;;;;;;;;;;16.41;46.65;100202.38;5031362;28;1116;-47
2023/03/16 08:47:26;;;;;;;;;;;;;;;16.24;46.37;100208.28;4998333;28;1367;-45
2023/03/16 08:49:52;;;;;;;;;;;;;;;17.57;45.36;100202.63;4997579;28;1910;-43
2023/03/16 08:52:18;;;;;;;;;;;;;;;16.52;46.67;100201.22;4998087;28;1144;-45
2023/03/16 08:54:43;;;;;;;;;;;;;;;16.23;46.77;100203.91;4999802;28;1037;-46
2023/03/16 08:57:09;;;;;;;;;;;;;;;17.16;46.17;100206.69;4999992;28;1140;-43
2023/03/16 08:59:35;;;;;;;;;;;;;;;16.53;46.79;100210.28;4999118;28;889;-43
2023/03/16 09:02:02;;;;;;;;;;;;;;;16.24;46.68;100209.13;4999188;28;1076;-46
2023/03/16 09:04:28;;;;;;;;;;;;;;;17.03;46.53;100207.38;4999451;28;1033;-42
2023/03/16 09:06:54;;;;;;;;;;;;;;;16.31;47.31;100206.03;4999211;28;1127;-44
2023/03/16 09:09:20;;;;;;;;;;;;;;;17.64;45.32;100203.09;4998415;28;1910;-43
2023/03/16 09:11:46;;;;;;;;;;;;;;;17.60;45.30;100210.31;4998621;28;1239;-44
2023/03/16 09:14:12;;;;;;;;;;;;;;;16.69;46.77;100225.50;4999729;28;1029;-43
2023/03/16 09:16:37;;;;;;;;;;;;;;;16.40;46.36;100223.53;4999452;28;1143;-43
2023/03/16 09:19:04;;;;;;;;;;;;;;;16.26;46.00;100219.81;4999175;28;1151;-45
2023/03/16 09:21:30;;;;;;;;;;;;;;;16.94;46.26;100223.66;4999045;28;1064;-45
2023/03/16 09:23:55;;;;;;;;;;;;;;;16.35;47.13;100223.56;4998977;28;873;-46
2023/03/16 09:26:21;;;;;;;;;;;;;;;16.88;46.76;100222.06;4999118;28;1141;-44
2023/03/16 09:28:48;;;;;;;;;;;;;;;16.61;47.45;100237.09;4999433;28;1219;-46
2023/03/16 09:31:17;;;;;;;;;;;;;;;16.29;47.07;100238.44;4998746;28;1910;-42
2023/03/16 09:33:42;;;;;;;;;;;;;;;17.42;45.66;100237.44;4998916;28;1139;-44
2023/03/16 09:36:10;;;;;;;;;;;;;;;16.46;47.47;100248.22;4998576;28;1076;-44
2023/03/16 09:38:36;;;;;;;;;;;;;;;16.72;47.35;100246.09;4999009;28;1203;-46
2023/03/16 09:41:21;;;;;;;;;;;;;;;17.15;46.24;100246.25;4998719;28;1141;-44
2023/03/16 09:44:08;;;;;;;;;;;;;;;16.43;47.05;100255.88;4998432;28;1028;-42
2023/03/16 09:46:33;;;;;;;;;;;;;;;17.44;45.98;100261.88;4998065;28;1424;-46
2023/03/16 09:48:59;;;;;;;;;;;;;;;16.42;47.42;100257.00;4997995;28;1906;-48
2023/03/16 09:51:51;;;;;;;;;;;;;;;16.26;47.44;100258.22;4998699;28;1135;-47
2023/03/16 09:54:25;;;;;;;;;;;;;;;16.87;47.05;100270.66;4997771;28;1418;-44
2023/03/16 09:56:51;;;;;;;;;;;;;;;16.23;47.19;100262.34;5030254;28;1004;-45
2023/03/16 09:59:17;;;;;;;;;;;;;;;17.75;45.18;100275.28;4998395;28;1204;-47
2023/03/16 10:01:47;;;;;;;;;;;;;;;16.62;47.09;100279.94;4996743;28;1105;-43
2023/03/16 10:04:15;;;;;;;;;;;;;;;17.37;46.15;100283.41;4998308;28;1101;-43
2023/03/16 10:06:54;;;;;;;;;;;;;;;17.17;46.28;100284.44;4998302;28;1052;-45
2023/03/16 10:09:25;;;;;;;;;;;;;;;16.45;47.21;100293.22;4998510;28;1980;-42
2023/03/16 10:11:53;;;;;;;;;;;;;;;16.51;47.39;100286.56;5029711;28;1207;-47
2023/03/16 10:14:22;;;;;;;;;;;;;;;16.81;46.71;100284.72;5029929;28;1068;-48
2023/03/16 10:16:55;;;;;;;;;;;;;;;16.49;47.63;100297.03;4997910;28;1093;-47
2023/03/16 10:19:24;;;;;;;;;;;;;;;18.05;44.61;100287.06;5029403;28;1540;-45
2023/03/16 10:21:49;;;;;;;;;;;;;;;16.88;46.88;100282.47;4993333;28;1111;-48
2023/03/16 10:24:18;;;;;;;;;;;;;;;16.45;46.73;100288.53;4997533;28;839;-44
2023/03/16 10:26:44;;;;;;;;;;;;;;;16.24;46.29;100290.59;4996304;28;1124;-47
2023/03/16 10:29:11;;;;;;;;;;;;;;;16.52;46.87;100299.19;5029133;28;1980;-45
2023/03/16 10:31:37;;;;;;;;;;;;;;;17.12;46.55;100295.47;4997709;28;1108;-46
2023/03/16 10:34:04;;;;;;;;;;;;;;;16.46;47.08;100292.13;5029463;28;1111;-42
2023/03/16 10:36:33;;;;;;;;;;;;;;;17.86;45.28;100289.72;4997617;28;1080;-41
2023/03/16 10:38:59;;;;;;;;;;;;;;;16.82;46.91;100294.59;4997572;28;1160;-45
2023/03/16 10:41:31;;;;;;;;;;;;;;;16.69;47.59;100296.06;4997310;28;1080;-48
2023/03/16 10:43:57;;;;;;;;;;;;;;;17.44;46.02;100295.69;5029008;28;1217;-48
2023/03/16 10:46:23;;;;;;;;;;;;;;;16.66;46.93;100302.97;4997978;28;1128;-42
2023/03/16 10:48:58;;;;;;;;;;;;;;;16.41;46.54;100304.75;4997583;28;859;-40
2023/03/16 10:51:25;;;;;;;;;;;;;;;16.68;46.63;100295.25;5028224;28;1125;-45
2023/03/16 10:53:51;;;;;;;;;;;;;;;17.04;46.55;100299.66;4997578;28;1103;-47
2023/03/16 10:56:21;;;;;;;;;;;;;;;16.39;46.89;100306.94;4997265;28;1608;-41
2023/03/16 10:58:47;;;;;;;;;;;;;;;17.38;46.21;100299.59;4997474;28;1132;-42
2023/03/16 11:01:20;;;;;;;;;;;;;;;16.70;47.26;100306.75;4997266;28;868;-44
2023/03/16 11:03:54;;;;;;;;;;;;;;;16.31;47.18;100307.53;4996677;28;1025;-46
2023/03/16 11:06:23;;;;;;;;;;;;;;;17.35;46.02;100304.84;5027355;28;1076;-48
2023/03/16 11:08:49;;;;;;;;;;;;;;;16.53;47.22;100306.34;4996938;28;1097;-41
2023/03/16 11:11:20;;;;;;;;;;;;;;;16.31;46.72;100302.06;5028417;28;1982;-43
2023/03/16 11:13:46;;;;;;;;;;;;;;;16.50;46.86;100306.91;4996081;28;1061;-44
2023/03/16 11:16:15;;;;;;;;;;;;;;;17.10;46.44;100312.25;4996998;28;1160;-48
2023/03/16 11:18:42;;;;;;;;;;;;;;;16.35;47.28;100307.81;4996999;28;1109;-48
2023/03/16 11:21:11;;;;;;;;;;;;;;;16.67;47.54;100301.84;5028290;28;1403;-44
2023/03/16 11:23:38;;;;;;;;;;;;;;;16.70;47.20;100304.00;4996605;28;1278;-47
2023/03/16 11:26:05;;;;;;;;;;;;;;;16.25;47.37;100297.72;4995797;28;1149;-48
2023/03/16 11:28:37;;;;;;;;;;;;;;;17.54;45.52;100296.69;4997096;28;1036;-41
2023/03/16 11:31:23;;;;;;;;;;;;;;;16.48;47.09;100309.94;4996506;28;1910;-42
2023/03/16 11:33:48;;;;;;;;;;;;;;;16.23;46.71;100299.94;5028442;28;1207;-42
2023/03/16 11:36:26;;;;;;;;;;;;;;;16.82;47.13;100302.84;4996573;28;1053;-44
2023/03/16 11:38:52;;;;;;;;;;;;;;;16.30;46.93;100305.09;4996949;28;1179;-45
2023/03/16 11:41:40;;;;;;;;;;;;;;;18.06;44.87;100317.03;4996917;28;1067;-40
2023/03/16 11:44:24;;;;;;;;;;;;;;;16.77;46.88;100310.00;4995747;28;1191;-46
2023/03/16 11:46:52;;;;;;;;;;;;;;;16.25;47.27;100308.69;4995338;28;1200;-46
2023/03/16 11:49:27;;;;;;;;;;;;;;;16.17;46.68;100312.03;5016672;28;1973;-45
2023/03/16 11:52:02;;;;;;;;;;;;;;;16.66;47.05;100319.44;4988652;28;1108;-44
2023/03/16 11:54:33;;;;;;;;;;;;;;;16.65;47.36;100316.94;4996678;28;1071;-47
2023/03/16 11:57:06;;;;;;;;;;;;;;;17.89;45.24;100311.13;4997311;28;1164;-45
2023/03/16 11:59:37;;;;;;;;;;;;;;;18.46;43.69;100314.81;4996742;28;1123;-44
2023/03/16 12:02:15;;;;;;;;;;;;;;;17.04;46.63;100324.38;4992689;28;1060;-46
2023/03/16 12:04:50;;;;;;;;;;;;;;;16.68;46.43;100321.88;5028142;28;1123;-47
2023/03/16 12:07:22;;;;;;;;;;;;;;;16.37;46.41;100325.63;4996786;28;1103;-47
2023/03/16 12:09:49;;;;;;;;;;;;;;;17.35;46.10;100326.84;4996926;28;1906;-46
2023/03/16 12:12:18;;;;;;;;;;;;;;;16.58;47.11;100326.34;4996163;28;1127;-45
2023/03/16 12:14:45;;;;;;;;;;;;;;;16.24;46.64;100323.50;4996561;28;1049;-44
2023/03/16 12:17:15;;;;;;;;;;;;;;;17.29;46.30;100337.06;5014577;28;1192;-43
2023/03/16 12:19:53;;;;;;;;;;;;;;;16.88;47.07;100335.47;5028480;28;1055;-44
2023/03/16 12:22:24;;;;;;;;;;;;;;;18.76;43.47;100340.28;4996788;28;1056;-43
2023/03/16 12:24:50;;;;;;;;;;;;;;;17.50;45.92;100342.38;5027622;28;1028;-50
2023/03/16 12:27:26;;;;;;;;;;;;;;;16.82;46.80;100352.28;4996608;28;1028;-44
2023/03/16 12:30:11;;;;;;;;;;;;;;;16.53;46.56;100350.25;4995815;28;1903;-46
2023/03/16 12:32:44;;;;;;;;;;;;;;;17.19;46.38;100353.66;4996744;28;1120;-48
2023/03/16 12:35:28;;;;;;;;;;;;;;;16.75;47.17;100355.34;4996418;28;1049;-45
2023/03/16 12:38:00;;;;;;;;;;;;;;;17.83;45.42;100359.09;4995943;28;1037;-42
2023/03/16 12:40:25;;;;;;;;;;;;;;;17.92;45.05;100360.94;4996184;28;1176;-47
2023/03/16 12:42:55;;;;;;;;;;;;;;;17.10;46.52;100357.00;4997040;28;1044;-45
2023/03/16 12:45:21;;;;;;;;;;;;;;;16.55;46.81;100353.50;5017771;28;978;-46
2023/03/16 12:47:49;;;;;;;;;;;;;;;17.34;46.07;100361.75;5000063;28;1445;-45
2023/03/16 12:50:15;;;;;;;;;;;;;;;16.63;46.96;100363.91;4999546;28;1906;-46
2023/03/16 12:52:42;;;;;;;;;;;;;;;16.50;46.17;100359.88;5030997;28;1001;-44
2023/03/16 12:55:07;;;;;;;;;;;;;;;17.21;46.45;100363.25;4999937;28;1032;-43
2023/03/16 12:57:35;;;;;;;;;;;;;;;16.99;46.79;100366.44;4999119;28;1060;-46
2023/03/16 13:00:01;;;;;;;;;;;;;;;16.61;46.98;100371.63;4999769;28;1005;-43